Time;durP1;ratioP1;P1;durP2;ratioP2;P2;SDS_P1;SDS_P2;PMS_P1;PMS_P2;Temp;Humidity;BMP_temperature;BMP_pressure;BME280_temperature;BME280_humidity;BME280_pressure;Samples;Min_cycle;Max_cycle;Signal;HPM_P1;HPM_P2
2022/09/06 00:00:59;;;;;;;;;;;;;;;20.91;56.92;100413.31;4367966;32;34373;-82
2022/09/06 00:03:27;;;;;;;;;;;;;;;20.85;56.94;100411.13;4358800;32;33061;-81
2022/09/06 00:05:54;;;;;;;;;;;;;;;20.75;57.19;100407.41;4362838;32;34381;-80
2022/09/06 00:08:21;;;;;;;;;;;;;;;20.42;58.04;100404.47;4367535;32;34036;-81
2022/09/06 00:10:56;;;;;;;;;;;;;;;20.42;58.08;100406.28;4369085;32;33665;-80
2022/09/06 00:13:27;;;;;;;;;;;;;;;20.76;56.96;100411.81;4369747;32;34031;-81
2022/09/06 00:15:55;;;;;;;;;;;;;;;20.45;57.90;100406.03;4370237;32;33112;-81
2022/09/06 00:18:23;;;;;;;;;;;;;;;20.35;58.17;100410.37;4381709;32;33974;-81
2022/09/06 00:20:50;;;;;;;;;;;;;;;20.32;58.19;100399.87;4370242;32;34286;-81
2022/09/06 00:23:18;;;;;;;;;;;;;;;20.29;58.85;100408.16;4345320;32;790507;-81
2022/09/06 00:25:45;;;;;;;;;;;;;;;20.24;58.55;100408.50;4370178;32;32216;-81
2022/09/06 00:28:12;;;;;;;;;;;;;;;20.13;58.52;100412.00;4369640;32;34474;-81
2022/09/06 00:30:40;;;;;;;;;;;;;;;20.02;58.72;100417.28;4375661;32;32813;-81
2022/09/06 00:33:07;;;;;;;;;;;;;;;19.96;58.84;100417.72;4384657;32;34471;-81
2022/09/06 00:35:35;;;;;;;;;;;;;;;20.06;58.47;100424.13;4382610;32;33288;-81
2022/09/06 00:38:03;;;;;;;;;;;;;;;19.88;59.17;100420.94;4385457;32;34518;-81
2022/09/06 00:40:31;;;;;;;;;;;;;;;19.83;59.46;100417.75;4364410;32;32682;-81
2022/09/06 00:42:59;;;;;;;;;;;;;;;19.89;59.51;100413.75;4378452;32;34281;-81
2022/09/06 00:45:26;;;;;;;;;;;;;;;20.02;59.10;100411.91;4365793;32;32532;-81
2022/09/06 00:47:54;;;;;;;;;;;;;;;20.03;59.01;100418.12;4366184;32;33765;-81
2022/09/06 00:50:21;;;;;;;;;;;;;;;19.99;59.01;100411.28;4364196;32;33495;-80
2022/09/06 00:52:49;;;;;;;;;;;;;;;20.02;58.89;100417.28;4384971;32;33595;-81
2022/09/06 00:55:16;;;;;;;;;;;;;;;20.17;58.32;100416.13;4377946;32;34150;-82
2022/09/06 00:57:45;;;;;;;;;;;;;;;20.29;57.66;100408.16;4378487;32;33879;-80
2022/09/06 01:00:14;;;;;;;;;;;;;;;20.01;58.27;100414.72;4384327;32;34093;-81
2022/09/06 01:02:42;;;;;;;;;;;;;;;19.67;59.27;100418.00;4377752;32;34577;-80
2022/09/06 01:05:10;;;;;;;;;;;;;;;19.86;58.65;100412.19;4377465;32;32983;-80
2022/09/06 01:07:37;;;;;;;;;;;;;;;19.76;59.05;100416.50;4361860;32;33392;-80
2022/09/06 01:10:24;;;;;;;;;;;;;;;19.89;58.73;100416.44;4390405;32;34769;-82
2022/09/06 01:13:01;;;;;;;;;;;;;;;19.86;58.76;100422.06;4387472;32;34207;-81
2022/09/06 01:15:43;;;;;;;;;;;;;;;19.80;58.86;100409.97;4388909;32;32129;-80
2022/09/06 01:18:18;;;;;;;;;;;;;;;19.67;59.32;100407.28;4375217;32;34668;-81
2022/09/06 01:20:46;;;;;;;;;;;;;;;19.84;58.80;100407.88;4378093;32;34050;-81
2022/09/06 01:23:22;;;;;;;;;;;;;;;19.89;58.64;100405.72;4391326;32;34414;-81
2022/09/06 01:26:08;;;;;;;;;;;;;;;19.88;58.74;100412.06;4378600;32;33130;-81
2022/09/06 01:28:36;;;;;;;;;;;;;;;19.98;58.25;100397.00;4390741;32;34398;-81
2022/09/06 01:31:04;;;;;;;;;;;;;;;19.80;58.75;100401.06;4371776;32;34745;-81
2022/09/06 01:33:34;;;;;;;;;;;;;;;19.58;59.31;100407.91;4390654;32;32886;-81
2022/09/06 01:36:03;;;;;;;;;;;;;;;19.59;59.32;100404.28;4384150;32;32206;-81
2022/09/06 01:38:31;;;;;;;;;;;;;;;19.69;59.01;100404.50;4358107;32;32976;-81
2022/09/06 01:40:58;;;;;;;;;;;;;;;19.76;59.00;100399.56;4371021;32;33678;-81
2022/09/06 01:43:30;;;;;;;;;;;;;;;19.74;58.81;100404.16;4383572;32;34075;-82
2022/09/06 01:46:04;;;;;;;;;;;;;;;19.60;59.40;100406.00;4377736;32;33158;-81
2022/09/06 01:48:51;;;;;;;;;;;;;;;19.56;59.62;100399.16;4379503;32;33049;-81
2022/09/06 01:51:24;;;;;;;;;;;;;;;19.39;60.01;100403.00;4393548;32;34231;-81
2022/09/06 01:54:04;;;;;;;;;;;;;;;19.42;59.78;100408.16;4367649;32;33241;-81
2022/09/06 01:56:47;;;;;;;;;;;;;;;19.62;59.12;100405.91;4392244;32;33150;-81
2022/09/06 01:59:38;;;;;;;;;;;;;;;19.74;58.78;100398.81;4377497;32;32965;-81
2022/09/06 02:02:13;;;;;;;;;;;;;;;19.40;59.94;100401.19;4380667;32;34198;-81
2022/09/06 02:04:43;;;;;;;;;;;;;;;19.41;59.91;100398.41;4372670;32;32945;-81
2022/09/06 02:07:13;;;;;;;;;;;;;;;19.33;60.01;100391.91;4379917;32;32823;-81
2022/09/06 02:09:40;;;;;;;;;;;;;;;19.30;60.23;100400.13;4379665;32;33296;-81
2022/09/06 02:12:08;;;;;;;;;;;;;;;19.35;60.13;100395.31;4379370;32;34143;-81
2022/09/06 02:14:38;;;;;;;;;;;;;;;19.09;61.02;100395.31;4367034;32;32879;-81
2022/09/06 02:17:07;;;;;;;;;;;;;;;19.33;60.21;100392.75;4379836;32;34142;-81
2022/09/06 02:19:38;;;;;;;;;;;;;;;19.32;60.16;100393.72;4385470;32;34260;-81
2022/09/06 02:22:06;;;;;;;;;;;;;;;19.23;60.54;100396.16;4389943;32;33497;-81
2022/09/06 02:24:36;;;;;;;;;;;;;;;19.18;60.63;100394.69;4385612;32;33251;-81
2022/09/06 02:27:03;;;;;;;;;;;;;;;19.16;60.58;100393.06;4384829;32;32201;-80
2022/09/06 02:29:30;;;;;;;;;;;;;;;19.07;60.88;100391.88;4380224;32;34222;-80
2022/09/06 02:32:00;;;;;;;;;;;;;;;19.08;60.90;100390.06;4375713;32;32758;-81
2022/09/06 02:34:28;;;;;;;;;;;;;;;19.00;60.92;100387.09;4387349;32;34096;-81
2022/09/06 02:36:55;;;;;;;;;;;;;;;19.05;60.77;100391.16;4378811;32;33145;-81
2022/09/06 02:39:23;;;;;;;;;;;;;;;19.13;60.53;100386.13;4378004;32;32714;-81
2022/09/06 02:41:51;;;;;;;;;;;;;;;18.97;61.06;100388.12;4366952;32;33264;-81
2022/09/06 02:44:18;;;;;;;;;;;;;;;18.97;61.38;100389.97;4374612;32;33362;-81
2022/09/06 02:46:46;;;;;;;;;;;;;;;19.02;61.07;100387.81;4376275;32;31939;-81
2022/09/06 02:49:14;;;;;;;;;;;;;;;18.92;61.58;100399.16;4393331;32;34602;-80
2022/09/06 02:51:41;;;;;;;;;;;;;;;19.07;60.90;100386.53;4379629;32;34147;-80
2022/09/06 02:54:09;;;;;;;;;;;;;;;18.84;61.45;100396.16;4379463;32;34103;-81
2022/09/06 02:56:37;;;;;;;;;;;;;;;18.81;61.68;100398.19;4377724;32;32020;-80
2022/09/06 02:59:04;;;;;;;;;;;;;;;18.88;61.48;100396.78;4378405;32;34108;-80
2022/09/06 03:01:32;;;;;;;;;;;;;;;18.61;62.19;100384.34;4377742;32;34094;-82
2022/09/06 03:03:59;;;;;;;;;;;;;;;18.61;62.23;100384.34;4379033;32;34181;-81
2022/09/06 03:06:27;;;;;;;;;;;;;;;18.63;61.90;100379.72;4383079;32;33850;-80
2022/09/06 03:08:54;;;;;;;;;;;;;;;18.69;61.85;100378.47;4392127;32;34780;-81
2022/09/06 03:11:22;;;;;;;;;;;;;;;18.60;62.91;100371.03;4366832;32;32817;-80
2022/09/06 03:13:49;;;;;;;;;;;;;;;18.44;62.91;100381.94;4379009;32;34452;-81
2022/09/06 03:16:18;;;;;;;;;;;;;;;18.21;62.37;100383.44;4378229;32;32907;-81
2022/09/06 03:18:45;;;;;;;;;;;;;;;18.51;61.00;100372.50;4385580;32;33656;-81
2022/09/06 03:21:13;;;;;;;;;;;;;;;18.80;60.45;100377.72;4378536;32;33862;-81
2022/09/06 03:23:41;;;;;;;;;;;;;;;18.80;60.85;100375.06;4383881;32;33822;-81
2022/09/06 03:26:08;;;;;;;;;;;;;;;18.33;62.48;100374.62;4385665;32;32999;-81
2022/09/06 03:28:36;;;;;;;;;;;;;;;18.32;62.65;100380.06;4385591;32;35016;-81
2022/09/06 03:31:03;;;;;;;;;;;;;;;18.25;62.26;100382.28;4376219;32;34019;-81
2022/09/06 03:33:31;;;;;;;;;;;;;;;18.55;61.01;100383.88;4378370;32;33814;-81
2022/09/06 03:35:59;;;;;;;;;;;;;;;18.46;61.01;100384.47;4366296;32;32493;-81
2022/09/06 03:38:27;;;;;;;;;;;;;;;18.37;61.03;100378.81;4365060;32;33218;-81
2022/09/06 03:40:55;;;;;;;;;;;;;;;18.64;59.75;100380.56;4359902;32;34318;-81
2022/09/06 03:43:23;;;;;;;;;;;;;;;18.78;59.41;100385.00;4365875;32;33037;-81
2022/09/06 03:45:51;;;;;;;;;;;;;;;18.86;59.26;100371.97;4382544;32;33421;-81
2022/09/06 03:48:20;;;;;;;;;;;;;;;19.09;58.82;100378.41;4385932;32;32796;-81
2022/09/06 03:50:48;;;;;;;;;;;;;;;18.89;59.16;100377.09;4384969;32;34111;-81
2022/09/06 03:53:18;;;;;;;;;;;;;;;18.82;59.61;100391.88;4384438;32;34238;-81
2022/09/06 03:55:46;;;;;;;;;;;;;;;18.71;59.31;100389.94;4378087;32;32070;-81
2022/09/06 03:58:13;;;;;;;;;;;;;;;18.94;59.02;100388.34;4388261;32;33900;-81
2022/09/06 04:00:41;;;;;;;;;;;;;;;18.75;59.00;100390.56;4383895;32;33529;-81
2022/09/06 04:03:09;;;;;;;;;;;;;;;18.90;59.26;100389.53;4377007;32;34155;-81
2022/09/06 04:05:36;;;;;;;;;;;;;;;18.76;59.69;100395.84;4359653;32;32532;-82
2022/09/06 04:08:04;;;;;;;;;;;;;;;18.83;58.79;100383.72;4391264;32;33935;-81
2022/09/06 04:10:32;;;;;;;;;;;;;;;18.72;58.44;100383.63;4383114;32;34928;-81
2022/09/06 04:13:00;;;;;;;;;;;;;;;18.96;57.82;100378.41;4377642;32;34652;-80
2022/09/06 04:15:27;;;;;;;;;;;;;;;19.06;57.22;100384.81;4378508;32;31839;-81
2022/09/06 04:17:56;;;;;;;;;;;;;;;19.16;56.96;100380.53;4366228;32;33330;-80
2022/09/06 04:20:23;;;;;;;;;;;;;;;18.98;57.61;100378.28;4378383;32;34189;-80
2022/09/06 04:22:50;;;;;;;;;;;;;;;18.89;57.55;100387.81;4365107;32;33374;-80
2022/09/06 04:25:18;;;;;;;;;;;;;;;18.79;56.85;100390.25;4384646;32;32189;-80
2022/09/06 04:27:45;;;;;;;;;;;;;;;19.03;56.44;100381.50;4383730;32;33879;-80
2022/09/06 04:30:13;;;;;;;;;;;;;;;19.09;56.37;100384.62;4365592;32;34088;-80
2022/09/06 04:32:40;;;;;;;;;;;;;;;19.21;55.82;100392.75;4384226;32;34892;-80
2022/09/06 04:35:08;;;;;;;;;;;;;;;19.10;56.30;100396.19;4378605;32;33786;-80
2022/09/06 04:37:35;;;;;;;;;;;;;;;19.14;56.60;100392.34;4372345;32;34221;-80
2022/09/06 04:40:03;;;;;;;;;;;;;;;19.17;56.26;100395.63;4365674;32;34023;-80
2022/09/06 04:42:30;;;;;;;;;;;;;;;19.34;55.53;100394.44;4385736;32;33106;-80
2022/09/06 04:44:57;;;;;;;;;;;;;;;19.33;55.86;100386.53;4383900;32;33813;-80
2022/09/06 04:47:25;;;;;;;;;;;;;;;19.24;55.92;100388.03;4378058;32;34854;-81
2022/09/06 04:49:52;;;;;;;;;;;;;;;19.15;55.87;100388.69;4385184;32;33890;-81
2022/09/06 04:52:20;;;;;;;;;;;;;;;19.46;54.68;100384.69;4376926;32;33983;-81
2022/09/06 04:54:47;;;;;;;;;;;;;;;19.56;54.20;100384.88;4378162;32;32575;-80
2022/09/06 04:57:15;;;;;;;;;;;;;;;19.58;54.42;100386.50;4382197;32;33981;-81
2022/09/06 04:59:42;;;;;;;;;;;;;;;19.62;53.58;100377.31;4359696;32;32724;-81
2022/09/06 05:02:10;;;;;;;;;;;;;;;19.63;53.31;100379.00;4373361;32;33599;-81
2022/09/06 05:04:37;;;;;;;;;;;;;;;19.49;54.08;100375.59;4370313;32;33405;-81
2022/09/06 05:07:06;;;;;;;;;;;;;;;19.63;53.34;100379.00;4388316;32;32859;-81
2022/09/06 05:09:33;;;;;;;;;;;;;;;19.52;53.30;100373.56;4370918;32;32879;-81
2022/09/06 05:12:01;;;;;;;;;;;;;;;19.19;54.84;100379.47;4376553;32;32912;-81
2022/09/06 05:14:28;;;;;;;;;;;;;;;19.59;53.35;100382.84;4389187;32;33694;-81
2022/09/06 05:16:56;;;;;;;;;;;;;;;19.73;52.76;100387.25;4380787;32;34246;-81
2022/09/06 05:19:23;;;;;;;;;;;;;;;19.65;52.40;100387.81;4377081;32;33328;-81
2022/09/06 05:21:50;;;;;;;;;;;;;;;19.61;52.37;100380.97;4373255;32;34600;-81
2022/09/06 05:24:18;;;;;;;;;;;;;;;19.80;52.07;100380.47;4371915;32;32226;-81
2022/09/06 05:26:46;;;;;;;;;;;;;;;19.93;51.48;100380.41;4377489;32;33220;-82
2022/09/06 05:29:13;;;;;;;;;;;;;;;20.14;51.12;100383.34;4382205;32;33871;-81
2022/09/06 05:31:41;;;;;;;;;;;;;;;20.18;51.19;100391.06;4383131;32;34349;-81
2022/09/06 05:34:09;;;;;;;;;;;;;;;20.31;50.43;100379.41;4384085;32;34280;-81
2022/09/06 05:36:37;;;;;;;;;;;;;;;20.38;50.49;100375.31;4372400;32;34022;-81
2022/09/06 05:39:05;;;;;;;;;;;;;;;20.16;50.75;100376.03;4378184;32;33429;-83
2022/09/06 05:41:32;;;;;;;;;;;;;;;20.31;50.49;100374.88;4374201;32;34697;-80
2022/09/06 05:43:59;;;;;;;;;;;;;;;20.26;49.85;100381.56;4363762;32;31955;-81
2022/09/06 05:46:27;;;;;;;;;;;;;;;20.64;50.16;100384.91;4371942;32;33907;-81
2022/09/06 05:48:56;;;;;;;;;;;;;;;20.87;48.96;100380.47;4378119;32;33434;-81
2022/09/06 05:51:24;;;;;;;;;;;;;;;20.67;49.49;100386.53;4370738;32;33150;-81
2022/09/06 05:53:52;;;;;;;;;;;;;;;20.75;49.74;100391.28;4384468;32;31901;-81
2022/09/06 05:56:21;;;;;;;;;;;;;;;20.63;49.70;100377.00;4382741;32;32796;-80
2022/09/06 05:58:48;;;;;;;;;;;;;;;20.71;48.51;100375.44;4389712;32;34128;-81
2022/09/06 06:01:20;;;;;;;;;;;;;;;20.57;49.20;100375.66;4382932;32;33022;-81
2022/09/06 06:03:58;;;;;;;;;;;;;;;20.79;49.26;100382.03;4382638;32;33697;-82
2022/09/06 06:06:26;;;;;;;;;;;;;;;20.97;47.61;100377.94;4373192;32;32337;-81
2022/09/06 06:08:54;;;;;;;;;;;;;;;20.89;48.32;100380.38;4376284;32;33385;-81
2022/09/06 06:11:22;;;;;;;;;;;;;;;20.95;48.42;100379.91;4358946;32;33102;-81
2022/09/06 06:13:49;;;;;;;;;;;;;;;20.84;47.92;100369.13;4352921;32;32502;-81
2022/09/06 06:16:17;;;;;;;;;;;;;;;20.87;47.49;100376.94;4371008;32;32845;-81
2022/09/06 06:18:45;;;;;;;;;;;;;;;21.08;47.51;100382.47;4379885;32;35045;-82
2022/09/06 06:21:20;;;;;;;;;;;;;;;20.92;47.23;100374.75;4382207;32;34224;-82
2022/09/06 06:23:52;;;;;;;;;;;;;;;21.48;46.54;100374.84;4379999;32;33959;-81
2022/09/06 06:26:20;;;;;;;;;;;;;;;21.35;45.14;100376.78;4374711;32;33378;-81
2022/09/06 06:28:47;;;;;;;;;;;;;;;21.25;45.94;100386.53;4389986;32;36835;-81
2022/09/06 06:31:15;;;;;;;;;;;;;;;21.50;45.94;100380.94;4379127;32;32816;-82
2022/09/06 06:33:43;;;;;;;;;;;;;;;21.53;45.07;100375.31;4381106;32;33402;-81
2022/09/06 06:36:13;;;;;;;;;;;;;;;21.39;45.15;100380.94;4377107;32;33888;-82
2022/09/06 06:38:41;;;;;;;;;;;;;;;21.50;44.83;100386.28;4376157;32;33320;-81
2022/09/06 06:41:10;;;;;;;;;;;;;;;21.47;44.68;100378.50;4376602;32;33351;-81
2022/09/06 06:43:37;;;;;;;;;;;;;;;21.95;44.69;100381.72;4379905;32;34820;-82
2022/09/06 06:46:12;;;;;;;;;;;;;;;22.17;44.18;100380.88;4360515;32;33938;-81
2022/09/06 06:48:40;;;;;;;;;;;;;;;22.15;44.66;100387.34;4360823;32;34300;-81
2022/09/06 06:51:11;;;;;;;;;;;;;;;22.46;42.79;100380.25;4383761;32;33887;-82
2022/09/06 06:53:38;;;;;;;;;;;;;;;22.24;42.46;100392.81;4371319;32;33154;-81
2022/09/06 06:56:19;;;;;;;;;;;;;;;21.98;42.75;100394.94;4383692;32;33948;-81
2022/09/06 06:58:47;;;;;;;;;;;;;;;22.36;42.26;100395.44;4371754;32;34246;-82
2022/09/06 07:01:15;;;;;;;;;;;;;;;22.47;42.10;100392.72;4375292;32;34178;-81
2022/09/06 07:03:43;;;;;;;;;;;;;;;22.55;42.73;100403.72;4366468;32;32035;-82
2022/09/06 07:06:10;;;;;;;;;;;;;;;22.88;42.36;100393.72;4365593;32;32616;-81
2022/09/06 07:08:39;;;;;;;;;;;;;;;22.55;42.35;100401.03;4386169;32;33818;-82
2022/09/06 07:11:08;;;;;;;;;;;;;;;22.60;40.52;100401.50;4366720;32;33238;-81
2022/09/06 07:13:36;;;;;;;;;;;;;;;22.84;40.72;100398.53;4379675;32;31952;-81
2022/09/06 07:16:07;;;;;;;;;;;;;;;22.97;40.89;100396.53;4386710;32;34076;-82
2022/09/06 07:18:36;;;;;;;;;;;;;;;23.25;39.71;100394.97;4390815;32;33161;-81
2022/09/06 07:21:04;;;;;;;;;;;;;;;23.13;39.87;100397.91;4385619;32;34154;-82
2022/09/06 07:23:51;;;;;;;;;;;;;;;22.95;40.00;100403.88;4386887;32;32608;-82
2022/09/06 07:26:36;;;;;;;;;;;;;;;23.41;39.23;100408.00;4385416;32;35311;-82
2022/09/06 07:29:05;;;;;;;;;;;;;;;23.00;39.28;100414.25;4362102;32;33235;-82
2022/09/06 07:31:33;;;;;;;;;;;;;;;23.47;40.04;100407.44;4372940;32;33149;-81
2022/09/06 07:34:20;;;;;;;;;;;;;;;23.39;40.22;100403.69;4385564;32;32126;-82
2022/09/06 07:36:50;;;;;;;;;;;;;;;23.90;39.22;100400.94;4378741;32;34654;-82
2022/09/06 07:39:18;;;;;;;;;;;;;;;24.19;40.10;100400.16;4375970;32;33029;-81
2022/09/06 07:41:45;;;;;;;;;;;;;;;23.94;41.58;100402.38;4385441;32;33485;-81
2022/09/06 07:44:13;;;;;;;;;;;;;;;23.76;39.10;100404.03;4392606;32;34274;-82
2022/09/06 07:46:40;;;;;;;;;;;;;;;23.87;40.10;100398.53;4379028;32;33909;-84
2022/09/06 07:49:08;;;;;;;;;;;;;;;23.69;40.47;100402.84;4355157;32;32835;-81
2022/09/06 07:51:36;;;;;;;;;;;;;;;24.23;39.38;100402.44;4384666;32;33797;-84
2022/09/06 07:54:03;;;;;;;;;;;;;;;24.13;37.87;100401.56;4372017;32;33803;-81
2022/09/06 07:56:51;;;;;;;;;;;;;;;24.01;39.98;100400.81;4381775;32;34151;-82
2022/09/06 07:59:18;;;;;;;;;;;;;;;23.78;38.92;100399.34;4388979;32;33752;-82
2022/09/06 08:01:47;;;;;;;;;;;;;;;23.62;39.80;100397.13;4382772;32;31991;-82
2022/09/06 08:04:14;;;;;;;;;;;;;;;23.82;39.23;100408.03;4363253;32;32349;-81
2022/09/06 08:06:43;;;;;;;;;;;;;;;23.55;41.60;100395.09;4373780;32;33472;-82
2022/09/06 08:09:31;;;;;;;;;;;;;;;24.23;38.56;100396.19;4370254;32;34296;-82
2022/09/06 08:12:05;;;;;;;;;;;;;;;24.08;38.85;100403.84;4360258;32;31992;-82
2022/09/06 08:14:33;;;;;;;;;;;;;;;23.72;41.55;100398.06;4360481;32;32419;-82
2022/09/06 08:17:01;;;;;;;;;;;;;;;24.41;39.34;100399.09;4381865;32;32014;-81
2022/09/06 08:19:28;;;;;;;;;;;;;;;24.69;37.46;100389.28;4366759;32;32070;-81
2022/09/06 08:21:56;;;;;;;;;;;;;;;24.25;38.81;100389.63;4371500;32;33690;-82
2022/09/06 08:24:23;;;;;;;;;;;;;;;24.95;38.84;100389.50;4389032;32;33928;-82
2022/09/06 08:26:51;;;;;;;;;;;;;;;24.78;38.45;100386.56;4378031;32;34228;-82
2022/09/06 08:29:21;;;;;;;;;;;;;;;24.82;38.16;100380.84;4377281;32;34285;-83
2022/09/06 08:31:49;;;;;;;;;;;;;;;25.19;38.27;100384.50;4363612;32;32905;-83
2022/09/06 08:34:16;;;;;;;;;;;;;;;24.97;37.88;100374.00;4365495;32;32032;-81
2022/09/06 08:36:45;;;;;;;;;;;;;;;24.74;37.96;100384.28;4365539;32;33000;-82
2022/09/06 08:39:12;;;;;;;;;;;;;;;24.89;39.32;100374.75;4365861;32;33265;-82
2022/09/06 08:41:54;;;;;;;;;;;;;;;24.89;37.65;100373.91;4386600;32;34015;-82
2022/09/06 08:44:23;;;;;;;;;;;;;;;25.17;38.22;100373.00;4379163;32;33580;-82
2022/09/06 08:47:11;;;;;;;;;;;;;;;25.24;37.74;100371.41;4373600;32;33004;-82
2022/09/06 08:49:40;;;;;;;;;;;;;;;25.83;39.25;100369.31;4378561;32;33087;-82
2022/09/06 08:52:24;;;;;;;;;;;;;;;25.76;37.26;100371.75;4384743;32;34520;-83
2022/09/06 08:54:54;;;;;;;;;;;;;;;25.93;37.12;100377.38;4384257;32;32251;-83
2022/09/06 08:57:21;;;;;;;;;;;;;;;25.64;37.15;100361.28;4383359;32;33103;-83
2022/09/06 08:59:48;;;;;;;;;;;;;;;26.22;36.16;100367.19;4370783;32;32740;-84
2022/09/06 09:02:20;;;;;;;;;;;;;;;25.65;37.09;100371.94;4377908;32;33880;-83
2022/09/06 09:04:49;;;;;;;;;;;;;;;26.01;40.16;100369.31;4371740;32;32153;-84
2022/09/06 09:07:26;;;;;;;;;;;;;;;26.32;36.44;100360.84;4365905;32;34055;-83
2022/09/06 09:09:54;;;;;;;;;;;;;;;26.53;35.81;100353.28;4377409;32;34225;-83
2022/09/06 09:12:22;;;;;;;;;;;;;;;26.62;35.55;100357.75;4352089;32;34533;-83
2022/09/06 09:14:51;;;;;;;;;;;;;;;26.48;35.29;100358.31;4378863;32;31930;-84
2022/09/06 09:17:21;;;;;;;;;;;;;;;26.49;36.14;100351.88;4371742;32;34929;-83
2022/09/06 09:19:49;;;;;;;;;;;;;;;26.76;36.05;100349.06;4384609;32;33711;-84
2022/09/06 09:22:17;;;;;;;;;;;;;;;26.99;34.91;100337.72;4365859;32;33277;-83
2022/09/06 09:24:46;;;;;;;;;;;;;;;26.45;36.23;100339.69;4373126;32;33593;-84
2022/09/06 09:27:15;;;;;;;;;;;;;;;26.88;36.63;100335.28;4384296;32;34212;-84
2022/09/06 09:29:52;;;;;;;;;;;;;;;26.03;36.63;100345.69;4360388;32;33052;-84
2022/09/06 09:32:43;;;;;;;;;;;;;;;26.86;35.83;100329.16;4378140;32;34148;-84
2022/09/06 09:35:30;;;;;;;;;;;;;;;27.31;35.83;100316.25;4390175;32;33323;-84
2022/09/06 09:38:00;;;;;;;;;;;;;;;27.41;34.95;100312.56;4388952;32;32875;-85
2022/09/06 09:40:49;;;;;;;;;;;;;;;27.45;34.67;100311.22;4358838;32;34418;-85
2022/09/06 09:43:16;;;;;;;;;;;;;;;27.26;35.17;100312.31;4377508;32;34138;-85
2022/09/06 09:45:44;;;;;;;;;;;;;;;27.50;38.06;100301.56;4376885;32;33585;-85
2022/09/06 09:48:28;;;;;;;;;;;;;;;27.57;34.49;100312.59;4373315;32;33773;-86
2022/09/06 09:50:56;;;;;;;;;;;;;;;27.56;34.42;100302.78;4377521;32;34918;-86
2022/09/06 09:53:23;;;;;;;;;;;;;;;28.05;35.19;100297.47;4376781;32;34482;-84
2022/09/06 09:55:54;;;;;;;;;;;;;;;27.72;36.49;100302.00;4378333;32;32897;-84
2022/09/06 09:58:32;;;;;;;;;;;;;;;28.45;34.07;100288.53;4377859;32;33006;-84
2022/09/06 10:01:10;;;;;;;;;;;;;;;27.90;35.76;100289.16;4375989;32;34214;-84
2022/09/06 10:03:37;;;;;;;;;;;;;;;28.36;34.36;100294.16;4377106;32;34894;-83
2022/09/06 10:06:25;;;;;;;;;;;;;;;28.52;32.86;100283.25;4385042;32;33265;-85
2022/09/06 10:09:20;;;;;;;;;;;;;;;28.00;34.39;100278.13;4387290;32;34185;-83
2022/09/06 10:11:53;;;;;;;;;;;;;;;27.97;38.41;100278.50;4379005;32;34285;-83
2022/09/06 10:14:23;;;;;;;;;;;;;;;28.35;34.28;100270.72;4361044;32;33268;-83
2022/09/06 10:16:51;;;;;;;;;;;;;;;28.11;34.60;100272.38;4379072;32;32288;-83
2022/09/06 10:19:36;;;;;;;;;;;;;;;27.91;34.78;100274.56;4379942;32;33646;-82
2022/09/06 10:22:11;;;;;;;;;;;;;;;27.90;34.85;100266.59;4369480;32;33339;-82
2022/09/06 10:24:38;;;;;;;;;;;;;;;28.46;34.31;100256.78;4382195;32;34174;-82
2022/09/06 10:27:11;;;;;;;;;;;;;;;28.69;35.82;100262.34;4385043;32;33013;-83
2022/09/06 10:29:41;;;;;;;;;;;;;;;29.09;33.19;100250.53;4369485;32;33207;-83
2022/09/06 10:32:12;;;;;;;;;;;;;;;29.06;32.92;100248.19;4376241;32;32961;-82
2022/09/06 10:35:06;;;;;;;;;;;;;;;28.94;38.38;100249.53;4379411;32;35140;-83
2022/09/06 10:37:43;;;;;;;;;;;;;;;29.29;34.82;100253.66;4376649;32;32155;-82
2022/09/06 10:40:11;;;;;;;;;;;;;;;29.05;33.45;100246.47;4388067;32;32310;-82
2022/09/06 10:42:41;;;;;;;;;;;;;;;29.41;34.11;100241.38;4379211;32;33813;-82
2022/09/06 10:45:18;;;;;;;;;;;;;;;29.30;34.48;100242.62;4383255;32;34826;-82
2022/09/06 10:47:52;;;;;;;;;;;;;;;29.14;35.92;100239.97;4380076;32;32755;-82
2022/09/06 10:50:19;;;;;;;;;;;;;;;29.68;34.50;100236.50;4376354;32;32483;-83
2022/09/06 10:52:47;;;;;;;;;;;;;;;29.97;32.72;100230.34;4386352;32;33861;-82
2022/09/06 10:55:16;;;;;;;;;;;;;;;30.03;32.49;100240.50;4388642;32;33259;-83
2022/09/06 10:57:44;;;;;;;;;;;;;;;30.12;34.36;100236.69;4376644;32;32861;-82
2022/09/06 11:00:35;;;;;;;;;;;;;;;29.65;35.29;100245.88;4383303;32;32196;-82
2022/09/06 11:03:03;;;;;;;;;;;;;;;30.13;35.87;100238.41;4388330;32;33728;-82
2022/09/06 11:05:51;;;;;;;;;;;;;;;30.63;32.90;100239.63;4386411;32;33824;-82
2022/09/06 11:08:24;;;;;;;;;;;;;;;31.04;31.15;100229.12;4387334;32;34004;-83
2022/09/06 11:11:16;;;;;;;;;;;;;;;30.32;34.42;100246.06;4382480;32;33101;-82
2022/09/06 11:13:43;;;;;;;;;;;;;;;30.55;32.07;100228.81;4380072;32;34190;-83
2022/09/06 11:16:14;;;;;;;;;;;;;;;31.24;31.00;100226.69;4382431;32;33811;-82
2022/09/06 11:18:44;;;;;;;;;;;;;;;31.33;30.84;100222.84;4385594;32;33824;-82
2022/09/06 11:21:13;;;;;;;;;;;;;;;31.28;30.88;100219.81;4364553;32;33545;-83
2022/09/06 11:23:49;;;;;;;;;;;;;;;31.79;30.30;100211.56;4386231;32;34661;-82
2022/09/06 11:26:28;;;;;;;;;;;;;;;32.03;31.01;100214.97;4382542;32;34005;-92
2022/09/06 11:28:56;;;;;;;;;;;;;;;31.55;31.43;100220.97;4376933;32;33234;-93
2022/09/06 11:31:28;;;;;;;;;;;;;;;30.94;31.95;100206.75;4378546;32;32547;-92
2022/09/06 11:34:25;;;;;;;;;;;;;;;31.13;32.30;100216.22;4372045;32;33691;-92
2022/09/06 11:37:00;;;;;;;;;;;;;;;31.71;30.21;100199.91;4372761;32;33090;-92
2022/09/06 11:39:28;;;;;;;;;;;;;;;31.37;31.98;100196.81;4373477;32;33257;-92
2022/09/06 11:42:35;;;;;;;;;;;;;;;31.09;31.22;100195.81;4367965;32;33017;-92
2022/09/06 11:45:05;;;;;;;;;;;;;;;31.05;31.39;100192.66;4385138;32;34967;-92
2022/09/06 11:47:34;;;;;;;;;;;;;;;30.92;32.85;100199.81;4372971;32;33255;-92
2022/09/06 11:50:19;;;;;;;;;;;;;;;30.74;33.03;100195.59;4378483;32;33439;-92
2022/09/06 11:52:54;;;;;;;;;;;;;;;30.77;32.23;100192.50;4372946;32;34294;-92
2022/09/06 11:55:23;;;;;;;;;;;;;;;31.24;30.63;100179.41;4378289;32;33227;-91
2022/09/06 11:57:52;;;;;;;;;;;;;;;31.22;31.45;100179.63;4378888;32;32599;-92
2022/09/06 12:00:22;;;;;;;;;;;;;;;30.61;31.40;100176.28;4364232;32;32567;-92
2022/09/06 12:02:50;;;;;;;;;;;;;;;30.43;32.66;100183.97;4373280;32;33659;-92
2022/09/06 12:05:24;;;;;;;;;;;;;;;30.65;32.56;100169.41;4372919;32;33135;-92
2022/09/06 12:08:11;;;;;;;;;;;;;;;30.63;31.03;100160.59;4384487;32;34029;-92
2022/09/06 12:10:39;;;;;;;;;;;;;;;31.04;33.76;100166.41;4391193;32;32052;-92
2022/09/06 12:13:26;;;;;;;;;;;;;;;31.20;32.54;100167.22;4377798;32;33417;-92
2022/09/06 12:15:55;;;;;;;;;;;;;;;31.41;29.75;100160.97;4390290;32;33749;-91
2022/09/06 12:18:42;;;;;;;;;;;;;;;31.43;34.91;100159.75;4362862;32;34801;-91
2022/09/06 12:21:10;;;;;;;;;;;;;;;31.52;31.70;100155.00;4375839;32;31859;-92
2022/09/06 12:23:41;;;;;;;;;;;;;;;31.26;32.51;100159.13;4371545;32;33923;-92
2022/09/06 12:26:09;;;;;;;;;;;;;;;31.60;30.60;100146.69;4383695;32;34770;-91
2022/09/06 12:28:48;;;;;;;;;;;;;;;31.25;30.83;100138.34;4355270;32;32522;-92
2022/09/06 12:31:42;;;;;;;;;;;;;;;31.73;29.53;100129.59;4381728;32;31355;-91
2022/09/06 12:34:12;;;;;;;;;;;;;;;32.14;29.32;100129.72;4375657;32;34967;-91
2022/09/06 12:36:47;;;;;;;;;;;;;;;31.81;31.17;100122.13;4388844;32;33124;-92
2022/09/06 12:39:15;;;;;;;;;;;;;;;32.03;31.71;100122.09;4363750;32;32958;-92
2022/09/06 12:41:43;;;;;;;;;;;;;;;32.31;29.40;100112.00;4378229;32;33004;-91
2022/09/06 12:44:10;;;;;;;;;;;;;;;32.55;28.82;100107.94;4387311;32;31939;-91
2022/09/06 12:46:42;;;;;;;;;;;;;;;31.61;30.88;100123.81;4377976;32;34749;-82
2022/09/06 12:49:10;;;;;;;;;;;;;;;31.23;31.17;100107.66;4364387;32;33731;-83
2022/09/06 12:51:39;;;;;;;;;;;;;;;31.53;29.94;100113.03;4367126;32;32276;-82
2022/09/06 12:54:20;;;;;;;;;;;;;;;31.56;31.48;100101.72;4382514;32;32712;-82